sensor_id;sensor_type;location;lat;lon;timestamp;pressure;altitude;pressure_sealevel;temperature;humidity
54994;BME280;40891;47.242;8.648;2023-05-21T00:01:36;95859.47;;;14.13;100.00
54994;BME280;40891;47.242;8.648;2023-05-21T00:04:01;95862.53;;;14.15;100.00
54994;BME280;40891;47.242;8.648;2023-05-21T00:06:27;95854.63;;;14.13;100.00
54994;BME280;40891;47.242;8.648;2023-05-21T00:08:52;95853.59;;;14.11;100.00
54994;BME280;40891;47.242;8.648;2023-05-21T00:11:18;95856.13;;;14.09;100.00
54994;BME280;40891;47.242;8.648;2023-05-21T00:13:43;95846.06;;;14.17;100.00
54994;BME280;40891;47.242;8.648;2023-05-21T00:16:09;95842.00;;;14.18;100.00
54994;BME280;40891;47.242;8.648;2023-05-21T00:18:35;95855.00;;;14.21;100.00
54994;BME280;40891;47.242;8.648;2023-05-21T00:21:03;95850.19;;;14.21;100.00
54994;BME280;40891;47.242;8.648;2023-05-21T00:23:29;95848.91;;;14.22;100.00
54994;BME280;40891;47.242;8.648;2023-05-21T00:25:56;95853.16;;;14.18;100.00
54994;BME280;40891;47.242;8.648;2023-05-21T00:28:22;95850.38;;;14.18;100.00
54994;BME280;40891;47.242;8.648;2023-05-21T00:30:47;95842.00;;;14.18;100.00
54994;BME280;40891;47.242;8.648;2023-05-21T00:33:12;95843.72;;;14.15;100.00
54994;BME280;40891;47.242;8.648;2023-05-21T00:35:38;95842.22;;;14.14;100.00
54994;BME280;40891;47.242;8.648;2023-05-21T00:38:04;95843.97;;;14.12;100.00
54994;BME280;40891;47.242;8.648;2023-05-21T00:40:31;95839.34;;;14.09;100.00
54994;BME280;40891;47.242;8.648;2023-05-21T00:42:57;95837.78;;;14.08;100.00
54994;BME280;40891;47.242;8.648;2023-05-21T00:45:22;95839.56;;;14.05;100.00
54994;BME280;40891;47.242;8.648;2023-05-21T00:47:51;95828.66;;;14.07;100.00
54994;BME280;40891;47.242;8.648;2023-05-21T00:50:19;95831.19;;;14.05;100.00
54994;BME280;40891;47.242;8.648;2023-05-21T00:52:45;95832.69;;;14.06;100.00
54994;BME280;40891;47.242;8.648;2023-05-21T00:55:13;95833.75;;;14.09;100.00
54994;BME280;40891;47.242;8.648;2023-05-21T00:57:39;95830.94;;;14.09;100.00
54994;BME280;40891;47.242;8.648;2023-05-21T01:00:06;95829.41;;;14.08;100.00
54994;BME280;40891;47.242;8.648;2023-05-21T01:02:33;95827.09;;;14.06;100.00
54994;BME280;40891;47.242;8.648;2023-05-21T01:05:01;95826.31;;;14.06;100.00
54994;BME280;40891;47.242;8.648;2023-05-21T01:07:28;95821.50;;;14.06;100.00
54994;BME280;40891;47.242;8.648;2023-05-21T01:09:53;95820.28;;;14.07;100.00
54994;BME280;40891;47.242;8.648;2023-05-21T01:12:19;95820.00;;;14.05;100.00
54994;BME280;40891;47.242;8.648;2023-05-21T01:14:46;95826.81;;;14.04;100.00
54994;BME280;40891;47.242;8.648;2023-05-21T01:17:12;95820.19;;;14.02;100.00
54994;BME280;40891;47.242;8.648;2023-05-21T01:19:38;95818.63;;;14.01;100.00
54994;BME280;40891;47.242;8.648;2023-05-21T01:22:05;95822.00;;;14.05;100.00
54994;BME280;40891;47.242;8.648;2023-05-21T01:24:31;95824.53;;;14.03;100.00
54994;BME280;40891;47.242;8.648;2023-05-21T01:26:57;95822.44;;;13.98;100.00
54994;BME280;40891;47.242;8.648;2023-05-21T01:29:23;95818.59;;;13.95;100.00
54994;BME280;40891;47.242;8.648;2023-05-21T01:32:01;95814.47;;;13.91;100.00
54994;BME280;40891;47.242;8.648;2023-05-21T01:35:12;95813.41;;;13.88;100.00
54994;BME280;40891;47.242;8.648;2023-05-21T01:37:35;95814.88;;;13.84;100.00
54994;BME280;40891;47.242;8.648;2023-05-21T01:40:07;95812.78;;;13.79;100.00
54994;BME280;40891;47.242;8.648;2023-05-21T01:42:38;95814.25;;;13.74;100.00
54994;BME280;40891;47.242;8.648;2023-05-21T01:45:07;95812.69;;;13.73;100.00
54994;BME280;40891;47.242;8.648;2023-05-21T01:47:35;95813.47;;;13.74;100.00
54994;BME280;40891;47.242;8.648;2023-05-21T01:50:03;95817.03;;;13.74;100.00
54994;BME280;40891;47.242;8.648;2023-05-21T01:52:29;95813.47;;;13.74;100.00
54994;BME280;40891;47.242;8.648;2023-05-21T01:54:59;95807.38;;;13.75;100.00
54994;BME280;40891;47.242;8.648;2023-05-21T01:57:24;95809.44;;;13.75;100.00
54994;BME280;40891;47.242;8.648;2023-05-21T01:59:50;95812.69;;;13.73;100.00
54994;BME280;40891;47.242;8.648;2023-05-21T02:02:17;95802.00;;;13.72;100.00
54994;BME280;40891;47.242;8.648;2023-05-21T02:04:43;95806.06;;;13.71;100.00
54994;BME280;40891;47.242;8.648;2023-05-21T02:07:10;95804.03;;;13.71;100.00
54994;BME280;40891;47.242;8.648;2023-05-21T02:09:38;95806.06;;;13.71;100.00
54994;BME280;40891;47.242;8.648;2023-05-21T02:12:03;95818.22;;;13.68;100.00
54994;BME280;40891;47.242;8.648;2023-05-21T02:14:29;95809.53;;;13.65;100.00
54994;BME280;40891;47.242;8.648;2023-05-21T02:16:54;95802.44;;;13.64;100.00
54994;BME280;40891;47.242;8.648;2023-05-21T02:19:20;95808.47;;;13.63;100.00
54994;BME280;40891;47.242;8.648;2023-05-21T02:21:46;95797.81;;;13.61;100.00
54994;BME280;40891;47.242;8.648;2023-05-21T02:24:13;95798.09;;;13.63;100.00
54994;BME280;40891;47.242;8.648;2023-05-21T02:26:38;95798.78;;;13.58;100.00
54994;BME280;40891;47.242;8.648;2023-05-21T02:29:03;95802.84;;;13.57;100.00
54994;BME280;40891;47.242;8.648;2023-05-21T02:31:29;95797.94;;;13.52;100.00
54994;BME280;40891;47.242;8.648;2023-05-21T02:33:54;95795.41;;;13.54;100.00
54994;BME280;40891;47.242;8.648;2023-05-21T02:36:20;95798.22;;;13.54;100.00
54994;BME280;40891;47.242;8.648;2023-05-21T02:38:45;95794.19;;;13.55;100.00
54994;BME280;40891;47.242;8.648;2023-05-21T02:41:11;95780.91;;;13.50;100.00
54994;BME280;40891;47.242;8.648;2023-05-21T02:43:37;95787.72;;;13.49;100.00
54994;BME280;40891;47.242;8.648;2023-05-21T02:46:04;95789.69;;;13.43;100.00
54994;BME280;40891;47.242;8.648;2023-05-21T02:48:30;95793.44;;;13.40;100.00
54994;BME280;40891;47.242;8.648;2023-05-21T02:50:55;95793.63;;;13.37;100.00
54994;BME280;40891;47.242;8.648;2023-05-21T02:53:20;95796.63;;;13.33;100.00
54994;BME280;40891;47.242;8.648;2023-05-21T02:55:46;95794.63;;;13.34;100.00
54994;BME280;40891;47.242;8.648;2023-05-21T02:58:11;95795.41;;;13.34;100.00
54994;BME280;40891;47.242;8.648;2023-05-21T03:00:37;95793.75;;;13.28;100.00
54994;BME280;40891;47.242;8.648;2023-05-21T03:03:03;95796.00;;;13.24;100.00
54994;BME280;40891;47.242;8.648;2023-05-21T03:05:28;95791.66;;;13.23;100.00
54994;BME280;40891;47.242;8.648;2023-05-21T03:07:53;95797.53;;;13.25;100.00
54994;BME280;40891;47.242;8.648;2023-05-21T03:10:19;95794.16;;;13.21;100.00
54994;BME280;40891;47.242;8.648;2023-05-21T03:12:44;95797.94;;;13.18;100.00
54994;BME280;40891;47.242;8.648;2023-05-21T03:15:10;95790.03;;;13.16;100.00
54994;BME280;40891;47.242;8.648;2023-05-21T03:17:35;95796.56;;;13.13;100.00
54994;BME280;40891;47.242;8.648;2023-05-21T03:20:01;95799.94;;;13.17;100.00
54994;BME280;40891;47.242;8.648;2023-05-21T03:22:29;95801.41;;;13.13;100.00
54994;BME280;40891;47.242;8.648;2023-05-21T03:24:54;95798.53;;;13.07;100.00
54994;BME280;40891;47.242;8.648;2023-05-21T03:27:19;95803.31;;;13.07;100.00
54994;BME280;40891;47.242;8.648;2023-05-21T03:29:45;95797.66;;;13.01;100.00
54994;BME280;40891;47.242;8.648;2023-05-21T03:32:11;95806.19;;;12.97;100.00
54994;BME280;40891;47.242;8.648;2023-05-21T03:34:37;95804.06;;;12.92;100.00
54994;BME280;40891;47.242;8.648;2023-05-21T03:37:02;95805.53;;;12.88;100.00
54994;BME280;40891;47.242;8.648;2023-05-21T03:39:27;95790.06;;;12.87;100.00
54994;BME280;40891;47.242;8.648;2023-05-21T03:41:53;95793.81;;;12.84;100.00
54994;BME280;40891;47.242;8.648;2023-05-21T03:44:18;95802.34;;;12.80;100.00
54994;BME280;40891;47.242;8.648;2023-05-21T03:46:43;95798.50;;;12.78;100.00
54994;BME280;40891;47.242;8.648;2023-05-21T03:49:10;95802.63;;;12.82;100.00
54994;BME280;40891;47.242;8.648;2023-05-21T03:51:35;95798.13;;;12.85;100.00
54994;BME280;40891;47.242;8.648;2023-05-21T03:54:02;95804.41;;;12.80;100.00
54994;BME280;40891;47.242;8.648;2023-05-21T03:56:27;95809.88;;;12.74;100.00
54994;BME280;40891;47.242;8.648;2023-05-21T03:58:53;95814.09;;;12.70;100.00
54994;BME280;40891;47.242;8.648;2023-05-21T04:01:18;95818.53;;;12.76;100.00
54994;BME280;40891;47.242;8.648;2023-05-21T04:03:44;95817.66;;;12.70;100.00
54994;BME280;40891;47.242;8.648;2023-05-21T04:06:09;95823.13;;;12.65;100.00
54994;BME280;40891;47.242;8.648;2023-05-21T04:08:34;95822.56;;;12.61;100.00
54994;BME280;40891;47.242;8.648;2023-05-21T04:11:00;95824.47;;;12.55;100.00
54994;BME280;40891;47.242;8.648;2023-05-21T04:13:26;95830.03;;;12.55;100.00
54994;BME280;40891;47.242;8.648;2023-05-21T04:15:52;95826.31;;;12.58;100.00
54994;BME280;40891;47.242;8.648;2023-05-21T04:18:18;95829.66;;;12.62;100.00
54994;BME280;40891;47.242;8.648;2023-05-21T04:20:44;95830.72;;;12.64;100.00
54994;BME280;40891;47.242;8.648;2023-05-21T04:23:10;95835.34;;;12.67;100.00
54994;BME280;40891;47.242;8.648;2023-05-21T04:25:35;95840.44;;;12.69;100.00
54994;BME280;40891;47.242;8.648;2023-05-21T04:28:02;95835.16;;;12.71;100.00
54994;BME280;40891;47.242;8.648;2023-05-21T04:30:28;95838.53;;;12.75;100.00
54994;BME280;40891;47.242;8.648;2023-05-21T04:32:53;95844.41;;;12.77;100.00
54994;BME280;40891;47.242;8.648;2023-05-21T04:35:19;95842.75;;;12.85;100.00
54994;BME280;40891;47.242;8.648;2023-05-21T04:37:44;95844.69;;;12.93;100.00
54994;BME280;40891;47.242;8.648;2023-05-21T04:40:13;95846.03;;;12.98;100.00
54994;BME280;40891;47.242;8.648;2023-05-21T04:42:45;95846.88;;;13.04;100.00
54994;BME280;40891;47.242;8.648;2023-05-21T04:45:12;95853.38;;;13.10;100.00
54994;BME280;40891;47.242;8.648;2023-05-21T04:47:38;95855.78;;;13.17;100.00
54994;BME280;40891;47.242;8.648;2023-05-21T04:50:04;95861.25;;;13.26;100.00
54994;BME280;40891;47.242;8.648;2023-05-21T04:52:29;95855.28;;;13.33;100.00
54994;BME280;40891;47.242;8.648;2023-05-21T04:54:55;95860.47;;;13.40;100.00
54994;BME280;40891;47.242;8.648;2023-05-21T04:57:21;95864.69;;;13.50;100.00
54994;BME280;40891;47.242;8.648;2023-05-21T04:59:48;95863.03;;;13.58;100.00
54994;BME280;40891;47.242;8.648;2023-05-21T05:02:14;95853.50;;;13.65;100.00
54994;BME280;40891;47.242;8.648;2023-05-21T05:04:39;95861.25;;;13.76;100.00
54994;BME280;40891;47.242;8.648;2023-05-21T05:07:04;95855.53;;;13.85;100.00
54994;BME280;40891;47.242;8.648;2023-05-21T05:09:30;95861.19;;;13.90;100.00
54994;BME280;40891;47.242;8.648;2023-05-21T05:11:55;95864.91;;;14.02;100.00
54994;BME280;40891;47.242;8.648;2023-05-21T05:14:21;95861.00;;;14.14;100.00
54994;BME280;40891;47.242;8.648;2023-05-21T05:16:46;95866.84;;;14.30;100.00
54994;BME280;40891;47.242;8.648;2023-05-21T05:19:14;95871.66;;;14.50;100.00
54994;BME280;40891;47.242;8.648;2023-05-21T05:21:40;95866.81;;;14.51;100.00
54994;BME280;40891;47.242;8.648;2023-05-21T05:24:05;95859.47;;;14.53;100.00
54994;BME280;40891;47.242;8.648;2023-05-21T05:26:30;95856.94;;;14.55;100.00
54994;BME280;40891;47.242;8.648;2023-05-21T05:28:56;95852.97;;;14.62;100.00
54994;BME280;40891;47.242;8.648;2023-05-21T05:31:21;95861.47;;;14.73;100.00
54994;BME280;40891;47.242;8.648;2023-05-21T05:33:47;95860.25;;;14.79;100.00
54994;BME280;40891;47.242;8.648;2023-05-21T05:36:12;95862.19;;;14.93;100.00
54994;BME280;40891;47.242;8.648;2023-05-21T05:38:38;95863.28;;;15.02;100.00
54994;BME280;40891;47.242;8.648;2023-05-21T05:41:04;95864.06;;;15.02;100.00
54994;BME280;40891;47.242;8.648;2023-05-21T05:43:29;95857.91;;;14.98;100.00
54994;BME280;40891;47.242;8.648;2023-05-21T05:45:54;95854.44;;;15.09;100.00
54994;BME280;40891;47.242;8.648;2023-05-21T05:48:20;95858.66;;;15.24;100.00
54994;BME280;40891;47.242;8.648;2023-05-21T05:50:46;95863.13;;;15.42;100.00
54994;BME280;40891;47.242;8.648;2023-05-21T05:53:12;95864.78;;;15.54;100.00
54994;BME280;40891;47.242;8.648;2023-05-21T05:55:38;95861.94;;;15.48;100.00
54994;BME280;40891;47.242;8.648;2023-05-21T05:58:04;95866.31;;;15.55;100.00
54994;BME280;40891;47.242;8.648;2023-05-21T06:00:29;95864.59;;;15.63;100.00
54994;BME280;40891;47.242;8.648;2023-05-21T06:02:55;95865.72;;;15.77;100.00
54994;BME280;40891;47.242;8.648;2023-05-21T06:05:20;95862.47;;;15.89;100.00
54994;BME280;40891;47.242;8.648;2023-05-21T06:07:46;95867.53;;;15.80;100.00
54994;BME280;40891;47.242;8.648;2023-05-21T06:10:11;95867.09;;;15.92;100.00
54994;BME280;40891;47.242;8.648;2023-05-21T06:12:36;95864.34;;;16.03;100.00
54994;BME280;40891;47.242;8.648;2023-05-21T06:15:02;95872.09;;;16.19;100.00
54994;BME280;40891;47.242;8.648;2023-05-21T06:17:27;95868.59;;;16.35;100.00
54994;BME280;40891;47.242;8.648;2023-05-21T06:19:53;95860.16;;;16.30;100.00
54994;BME280;40891;47.242;8.648;2023-05-21T06:22:18;95863.94;;;16.21;100.00
54994;BME280;40891;47.242;8.648;2023-05-21T06:24:43;95861.19;;;16.32;100.00
54994;BME280;40891;47.242;8.648;2023-05-21T06:27:09;95861.06;;;16.58;100.00
54994;BME280;40891;47.242;8.648;2023-05-21T06:29:35;95862.91;;;16.83;100.00
54994;BME280;40891;47.242;8.648;2023-05-21T06:32:00;95862.72;;;17.09;100.00
54994;BME280;40891;47.242;8.648;2023-05-21T06:34:25;95860.16;;;17.00;100.00
54994;BME280;40891;47.242;8.648;2023-05-21T06:36:52;95859.16;;;17.14;100.00
54994;BME280;40891;47.242;8.648;2023-05-21T06:39:18;95857.34;;;17.28;100.00
54994;BME280;40891;47.242;8.648;2023-05-21T06:41:43;95861.72;;;17.34;100.00
54994;BME280;40891;47.242;8.648;2023-05-21T06:44:08;95854.03;;;17.18;99.93
54994;BME280;40891;47.242;8.648;2023-05-21T06:46:34;95861.44;;;17.05;99.77
54994;BME280;40891;47.242;8.648;2023-05-21T06:48:59;95857.09;;;17.15;100.00
54994;BME280;40891;47.242;8.648;2023-05-21T06:51:25;95858.41;;;17.36;100.00
54994;BME280;40891;47.242;8.648;2023-05-21T06:53:50;95856.09;;;17.45;100.00
54994;BME280;40891;47.242;8.648;2023-05-21T06:56:16;95867.06;;;17.21;99.30
54994;BME280;40891;47.242;8.648;2023-05-21T06:58:41;95863.75;;;17.39;100.00
54994;BME280;40891;47.242;8.648;2023-05-21T07:01:07;95869.94;;;17.54;98.44
54994;BME280;40891;47.242;8.648;2023-05-21T07:03:32;95866.59;;;17.56;97.36
54994;BME280;40891;47.242;8.648;2023-05-21T07:05:57;95868.38;;;17.81;97.58
54994;BME280;40891;47.242;8.648;2023-05-21T07:08:23;95866.28;;;17.98;96.67
54994;BME280;40891;47.242;8.648;2023-05-21T07:10:48;95868.31;;;18.03;94.44
54994;BME280;40891;47.242;8.648;2023-05-21T07:13:14;95868.81;;;18.13;94.39
54994;BME280;40891;47.242;8.648;2023-05-21T07:15:40;95871.09;;;18.31;94.20
54994;BME280;40891;47.242;8.648;2023-05-21T07:18:06;95862.84;;;18.50;93.49
54994;BME280;40891;47.242;8.648;2023-05-21T07:20:31;95871.06;;;18.36;92.16
54994;BME280;40891;47.242;8.648;2023-05-21T07:22:56;95870.78;;;18.46;92.80
54994;BME280;40891;47.242;8.648;2023-05-21T07:25:22;95861.09;;;18.30;91.99
54994;BME280;40891;47.242;8.648;2023-05-21T07:27:47;95853.19;;;18.28;92.27
54994;BME280;40891;47.242;8.648;2023-05-21T07:30:13;95862.13;;;18.27;91.78
54994;BME280;40891;47.242;8.648;2023-05-21T07:32:38;95859.78;;;18.42;92.33
54994;BME280;40891;47.242;8.648;2023-05-21T07:35:04;95856.50;;;18.32;91.56
54994;BME280;40891;47.242;8.648;2023-05-21T07:37:29;95849.03;;;18.46;92.59
54994;BME280;40891;47.242;8.648;2023-05-21T07:39:56;95858.50;;;18.43;91.76
54994;BME280;40891;47.242;8.648;2023-05-21T07:42:22;95851.09;;;18.46;91.44
54994;BME280;40891;47.242;8.648;2023-05-21T07:44:48;95852.38;;;18.39;90.93
54994;BME280;40891;47.242;8.648;2023-05-21T07:47:13;95849.78;;;18.52;90.68
54994;BME280;40891;47.242;8.648;2023-05-21T07:49:38;95844.41;;;18.49;89.45
54994;BME280;40891;47.242;8.648;2023-05-21T07:52:04;95852.38;;;18.39;90.23
54994;BME280;40891;47.242;8.648;2023-05-21T07:54:29;95845.59;;;18.70;93.25
54994;BME280;40891;47.242;8.648;2023-05-21T07:56:55;95850.94;;;18.79;89.59
54994;BME280;40891;47.242;8.648;2023-05-21T07:59:20;95849.72;;;19.10;89.84
54994;BME280;40891;47.242;8.648;2023-05-21T08:01:46;95858.91;;;19.16;88.52
54994;BME280;40891;47.242;8.648;2023-05-21T08:04:11;95851.41;;;19.24;88.11
54994;BME280;40891;47.242;8.648;2023-05-21T08:06:36;95864.78;;;19.18;85.93
54994;BME280;40891;47.242;8.648;2023-05-21T08:09:02;95857.22;;;19.01;85.68
54994;BME280;40891;47.242;8.648;2023-05-21T08:11:28;95855.13;;;19.08;87.45
54994;BME280;40891;47.242;8.648;2023-05-21T08:13:53;95851.59;;;19.01;87.15
54994;BME280;40891;47.242;8.648;2023-05-21T08:16:19;95846.72;;;19.02;86.88
54994;BME280;40891;47.242;8.648;2023-05-21T08:18:45;95851.59;;;19.01;87.01
54994;BME280;40891;47.242;8.648;2023-05-21T08:21:10;95846.53;;;19.30;87.13
54994;BME280;40891;47.242;8.648;2023-05-21T08:23:36;95848.88;;;19.26;85.38
54994;BME280;40891;47.242;8.648;2023-05-21T08:26:01;95843.38;;;19.44;86.80
54994;BME280;40891;47.242;8.648;2023-05-21T08:28:27;95850.03;;;19.71;85.04
54994;BME280;40891;47.242;8.648;2023-05-21T08:30:53;95848.22;;;19.74;82.55
54994;BME280;40891;47.242;8.648;2023-05-21T08:33:18;95850.66;;;19.88;79.32
54994;BME280;40891;47.242;8.648;2023-05-21T08:35:44;95848.97;;;20.04;76.53
54994;BME280;40891;47.242;8.648;2023-05-21T08:38:09;95852.63;;;19.99;76.19
54994;BME280;40891;47.242;8.648;2023-05-21T08:40:35;95853.00;;;19.84;75.76
54994;BME280;40891;47.242;8.648;2023-05-21T08:43:00;95850.97;;;20.09;76.22
54994;BME280;40891;47.242;8.648;2023-05-21T08:45:26;95845.50;;;20.41;74.23
54994;BME280;40891;47.242;8.648;2023-05-21T08:47:57;95843.66;;;20.67;72.22
54994;BME280;40891;47.242;8.648;2023-05-21T08:50:25;95838.69;;;20.73;71.57
54994;BME280;40891;47.242;8.648;2023-05-21T08:52:51;95845.25;;;21.00;72.47
54994;BME280;40891;47.242;8.648;2023-05-21T08:55:17;95837.94;;;21.29;71.57
54994;BME280;40891;47.242;8.648;2023-05-21T08:57:43;95840.06;;;21.41;67.67
54994;BME280;40891;47.242;8.648;2023-05-21T09:00:09;95842.75;;;21.34;69.59
54994;BME280;40891;47.242;8.648;2023-05-21T09:02:37;95846.69;;;21.44;69.25
54994;BME280;40891;47.242;8.648;2023-05-21T09:05:05;95840.47;;;21.64;66.58
54994;BME280;40891;47.242;8.648;2023-05-21T09:07:35;95845.22;;;21.56;70.18
54994;BME280;40891;47.242;8.648;2023-05-21T09:10:06;95837.75;;;21.72;67.77
54994;BME280;40891;47.242;8.648;2023-05-21T09:12:35;95837.50;;;22.01;69.03
54994;BME280;40891;47.242;8.648;2023-05-21T09:15:00;95832.66;;;22.28;66.31
54994;BME280;40891;47.242;8.648;2023-05-21T09:17:26;95833.94;;;22.53;67.06
54994;BME280;40891;47.242;8.648;2023-05-21T09:20:09;95836.34;;;22.75;65.27
54994;BME280;40891;47.242;8.648;2023-05-21T09:22:48;95833.38;;;22.94;65.07
54994;BME280;40891;47.242;8.648;2023-05-21T09:25:19;95835.56;;;23.22;65.42
54994;BME280;40891;47.242;8.648;2023-05-21T09:27:45;95826.06;;;23.32;62.32
54994;BME280;40891;47.242;8.648;2023-05-21T09:30:13;95828.75;;;23.51;64.03
54994;BME280;40891;47.242;8.648;2023-05-21T09:32:40;95830.41;;;23.46;61.32
54994;BME280;40891;47.242;8.648;2023-05-21T09:35:10;95835.47;;;23.82;61.63
54994;BME280;40891;47.242;8.648;2023-05-21T09:37:36;95836.63;;;23.86;61.71
54994;BME280;40891;47.242;8.648;2023-05-21T09:40:09;95839.31;;;23.71;56.98
54994;BME280;40891;47.242;8.648;2023-05-21T09:42:34;95831.56;;;23.92;56.85
54994;BME280;40891;47.242;8.648;2023-05-21T09:45:00;95831.38;;;24.39;57.41
54994;BME280;40891;47.242;8.648;2023-05-21T09:47:25;95833.56;;;24.54;58.24
54994;BME280;40891;47.242;8.648;2023-05-21T09:49:50;95833.28;;;24.72;56.66
54994;BME280;40891;47.242;8.648;2023-05-21T09:52:23;95829.56;;;24.77;54.70
54994;BME280;40891;47.242;8.648;2023-05-21T09:54:50;95830.81;;;24.41;55.73
54994;BME280;40891;47.242;8.648;2023-05-21T09:57:22;95833.91;;;24.22;55.85
54994;BME280;40891;47.242;8.648;2023-05-21T09:59:49;95829.91;;;24.46;55.36
54994;BME280;40891;47.242;8.648;2023-05-21T10:02:22;95826.91;;;24.87;55.82
54994;BME280;40891;47.242;8.648;2023-05-21T10:04:51;95838.22;;;25.08;52.65
54994;BME280;40891;47.242;8.648;2023-05-21T10:07:19;95825.97;;;25.35;56.41
54994;BME280;40891;47.242;8.648;2023-05-21T10:09:51;95822.91;;;25.26;53.25
54994;BME280;40891;47.242;8.648;2023-05-21T10:12:17;95834.41;;;25.63;52.55
54994;BME280;40891;47.242;8.648;2023-05-21T10:14:50;95828.34;;;25.67;53.67
54994;BME280;40891;47.242;8.648;2023-05-21T10:17:18;95820.97;;;25.79;52.68
54994;BME280;40891;47.242;8.648;2023-05-21T10:19:45;95822.66;;;25.97;52.18
54994;BME280;40891;47.242;8.648;2023-05-21T10:22:12;95828.91;;;25.96;50.62
54994;BME280;40891;47.242;8.648;2023-05-21T10:24:39;95823.44;;;26.13;50.53
54994;BME280;40891;47.242;8.648;2023-05-21T10:27:04;95829.16;;;26.20;52.12
54994;BME280;40891;47.242;8.648;2023-05-21T10:29:31;95822.25;;;26.61;49.98
54994;BME280;40891;47.242;8.648;2023-05-21T10:31:59;95813.44;;;26.89;50.51
54994;BME280;40891;47.242;8.648;2023-05-21T10:34:26;95813.28;;;27.27;50.33
54994;BME280;40891;47.242;8.648;2023-05-21T10:36:53;95819.50;;;27.33;50.91
54994;BME280;40891;47.242;8.648;2023-05-21T10:39:20;95817.38;;;27.49;47.63
54994;BME280;40891;47.242;8.648;2023-05-21T10:50:33;95804.97;;;28.70;46.88
54994;BME280;40891;47.242;8.648;2023-05-21T11:01:36;95794.31;;;29.58;42.91
54994;BME280;40891;47.242;8.648;2023-05-21T11:04:05;95794.06;;;29.63;43.31
54994;BME280;40891;47.242;8.648;2023-05-21T11:06:31;95789.13;;;30.00;39.94
54994;BME280;40891;47.242;8.648;2023-05-21T11:09:00;95789.16;;;30.19;40.48
54994;BME280;40891;47.242;8.648;2023-05-21T11:11:39;95794.69;;;29.98;41.85
54994;BME280;40891;47.242;8.648;2023-05-21T11:14:30;95798.72;;;29.86;40.30
54994;BME280;40891;47.242;8.648;2023-05-21T11:17:03;95789.41;;;30.50;39.91
54994;BME280;40891;47.242;8.648;2023-05-21T11:19:42;95780.72;;;30.96;40.91
54994;BME280;40891;47.242;8.648;2023-05-21T11:22:21;95774.34;;;30.98;38.63
54994;BME280;40891;47.242;8.648;2023-05-21T11:24:46;95781.78;;;30.91;40.38
54994;BME280;40891;47.242;8.648;2023-05-21T11:27:12;95790.50;;;30.83;40.95
54994;BME280;40891;47.242;8.648;2023-05-21T11:29:40;95778.47;;;30.94;38.62
54994;BME280;40891;47.242;8.648;2023-05-21T11:32:07;95781.16;;;30.73;40.48
54994;BME280;40891;47.242;8.648;2023-05-21T11:34:38;95777.50;;;30.54;40.23
54994;BME280;40891;47.242;8.648;2023-05-21T11:39:44;95783.16;;;31.00;39.27
54994;BME280;40891;47.242;8.648;2023-05-21T11:42:10;95772.25;;;31.08;38.20
54994;BME280;40891;47.242;8.648;2023-05-21T11:44:42;95770.34;;;31.60;38.80
54994;BME280;40891;47.242;8.648;2023-05-21T11:47:09;95770.09;;;31.46;38.37
54994;BME280;40891;47.242;8.648;2023-05-21T11:49:35;95770.03;;;30.31;38.28
54994;BME280;40891;47.242;8.648;2023-05-21T11:52:02;95764.88;;;30.20;40.31
54994;BME280;40891;47.242;8.648;2023-05-21T11:54:29;95770.84;;;30.51;40.06
54994;BME280;40891;47.242;8.648;2023-05-21T11:56:58;95776.28;;;30.38;38.28
54994;BME280;40891;47.242;8.648;2023-05-21T11:59:25;95775.06;;;30.50;39.25
54994;BME280;40891;47.242;8.648;2023-05-21T12:01:50;95776.63;;;30.15;39.93
54994;BME280;40891;47.242;8.648;2023-05-21T12:04:15;95779.31;;;29.67;40.67
54994;BME280;40891;47.242;8.648;2023-05-21T12:06:44;95784.53;;;29.88;41.73
54994;BME280;40891;47.242;8.648;2023-05-21T12:09:10;95778.41;;;30.01;42.39
54994;BME280;40891;47.242;8.648;2023-05-21T12:11:37;95775.63;;;29.84;42.37
54994;BME280;40891;47.242;8.648;2023-05-21T12:14:06;95773.28;;;30.09;40.14
54994;BME280;40891;47.242;8.648;2023-05-21T12:16:32;95774.63;;;30.44;40.69
54994;BME280;40891;47.242;8.648;2023-05-21T12:18:58;95765.56;;;30.76;39.11
54994;BME280;40891;47.242;8.648;2023-05-21T12:21:26;95766.94;;;30.66;41.93
54994;BME280;40891;47.242;8.648;2023-05-21T12:23:52;95762.56;;;31.03;40.40
54994;BME280;40891;47.242;8.648;2023-05-21T12:26:18;95766.34;;;31.15;39.64
54994;BME280;40891;47.242;8.648;2023-05-21T12:28:43;95766.50;;;30.98;39.96
54994;BME280;40891;47.242;8.648;2023-05-21T12:31:14;95768.75;;;31.19;38.64
54994;BME280;40891;47.242;8.648;2023-05-21T12:33:39;95764.19;;;31.35;36.82
54994;BME280;40891;47.242;8.648;2023-05-21T12:36:04;95769.34;;;31.86;35.99
54994;BME280;40891;47.242;8.648;2023-05-21T12:38:30;95767.34;;;31.58;39.14
54994;BME280;40891;47.242;8.648;2023-05-21T12:41:02;95749.56;;;32.11;37.01
54994;BME280;40891;47.242;8.648;2023-05-21T12:43:33;95765.28;;;32.51;36.24
54994;BME280;40891;47.242;8.648;2023-05-21T12:45:59;95750.84;;;33.14;34.79
54994;BME280;40891;47.242;8.648;2023-05-21T12:48:24;95759.28;;;33.01;33.32
54994;BME280;40891;47.242;8.648;2023-05-21T12:50:50;95756.91;;;33.30;34.77
54994;BME280;40891;47.242;8.648;2023-05-21T12:53:16;95755.41;;;33.96;35.83
54994;BME280;40891;47.242;8.648;2023-05-21T12:55:41;95752.88;;;33.23;34.29
54994;BME280;40891;47.242;8.648;2023-05-21T12:58:06;95757.38;;;32.20;34.81
54994;BME280;40891;47.242;8.648;2023-05-21T13:00:32;95760.84;;;32.28;34.88
54994;BME280;40891;47.242;8.648;2023-05-21T13:02:58;95753.59;;;32.49;36.26
54994;BME280;40891;47.242;8.648;2023-05-21T13:05:28;95755.03;;;32.80;36.89
54994;BME280;40891;47.242;8.648;2023-05-21T13:07:53;95757.94;;;33.02;35.41
54994;BME280;40891;47.242;8.648;2023-05-21T13:10:18;95746.72;;;33.62;34.79
54994;BME280;40891;47.242;8.648;2023-05-21T13:12:44;95750.28;;;34.41;33.74